createdAt,value
2019-04-22T00:00:42.406Z,18.95
2019-04-22T00:03:17.977Z,18.23
2019-04-22T00:06:10.129Z,28.73
2019-04-22T00:08:50.226Z,26.10
2019-04-22T00:11:25.840Z,28.85
2019-04-22T00:13:57.147Z,31.25
2019-04-22T00:16:36.000Z,32.83
2019-04-22T00:21:40.426Z,32.67
2019-04-22T00:24:10.966Z,34.83
2019-04-22T00:29:42.341Z,37.00
2019-04-22T00:31:54.336Z,35.73
2019-04-22T00:34:32.457Z,36.75
2019-04-22T00:37:01.021Z,36.23
2019-04-22T00:39:44.437Z,35.65
2019-04-22T00:42:15.117Z,35.73
2019-04-22T00:44:46.252Z,38.83
2019-04-22T00:47:23.314Z,37.15
2019-04-22T00:52:28.711Z,36.95
2019-04-22T00:55:05.792Z,38.83
2019-04-22T01:00:11.944Z,38.73
2019-04-22T01:02:49.553Z,38.88
2019-04-22T01:05:21.505Z,38.80
2019-04-22T01:07:49.474Z,38.00
2019-04-22T01:10:26.444Z,40.48
2019-04-22T01:12:57.326Z,39.75
2019-04-22T01:15:34.330Z,38.30
2019-04-22T01:18:08.246Z,39.00
2019-04-22T01:21:00.943Z,40.00
2019-04-22T01:23:19.267Z,37.98
2019-04-22T01:25:46.238Z,36.83
2019-04-22T01:28:19.709Z,37.38
2019-04-22T01:31:07.272Z,38.17
2019-04-22T01:33:38.427Z,37.73
2019-04-22T01:36:25.899Z,39.45
2019-04-22T01:39:07.086Z,38.45
2019-04-22T01:41:41.800Z,37.15
2019-04-22T01:49:23.954Z,37.42
2019-04-22T01:52:01.845Z,38.92
2019-04-22T01:54:35.178Z,36.55
2019-04-22T01:57:02.196Z,35.83
2019-04-22T01:59:31.855Z,35.75
2019-04-22T02:02:14.390Z,35.75
2019-04-22T02:04:44.632Z,35.35
2019-04-22T02:12:25.752Z,32.03
2019-04-22T02:14:57.911Z,31.90
2019-04-22T02:17:37.154Z,31.73
2019-04-22T02:20:10.576Z,30.65
2019-04-22T02:23:00.817Z,30.88
2019-04-22T02:25:27.162Z,31.80
2019-04-22T02:27:56.508Z,31.97
2019-04-22T02:30:36.386Z,32.00
2019-04-22T02:35:58.267Z,29.37
2019-04-22T02:38:31.106Z,29.65
2019-04-22T02:41:09.127Z,30.08
2019-04-22T02:43:41.553Z,28.95
2019-04-22T02:46:26.726Z,30.08
2019-04-22T02:56:37.837Z,32.53
2019-04-22T03:01:41.157Z,31.15
2019-04-22T03:06:42.843Z,30.35
2019-04-22T03:09:59.594Z,32.05
2019-04-22T03:12:29.133Z,30.00
2019-04-22T03:14:48.682Z,30.70
2019-04-22T03:17:34.759Z,29.72
2019-04-22T03:20:09.421Z,30.62
2019-04-22T03:38:14.303Z,26.42
2019-04-22T03:45:33.496Z,26.77
2019-04-22T03:48:23.976Z,28.15
2019-04-22T03:50:52.499Z,27.70
2019-04-22T03:53:29.217Z,26.60
2019-04-22T03:56:02.486Z,26.93
2019-04-22T03:58:58.739Z,27.60
2019-04-22T04:01:36.548Z,27.77
2019-04-22T04:04:13.048Z,27.67
2019-04-22T04:06:41.605Z,26.57
2019-04-22T04:09:14.487Z,27.13
2019-04-22T04:11:52.202Z,25.72
2019-04-22T04:16:56.230Z,26.60
2019-04-22T04:21:58.158Z,27.00
2019-04-22T04:24:44.823Z,26.33
2019-04-22T04:30:08.316Z,26.40
2019-04-22T04:32:41.385Z,36.77
2019-04-22T04:38:02.363Z,26.62
2019-04-22T04:45:44.918Z,26.70
2019-04-22T04:48:15.963Z,26.45
2019-04-22T04:50:58.534Z,25.85
2019-04-22T04:53:20.290Z,27.75
2019-04-22T04:55:51.907Z,26.57
2019-04-22T04:59:00.468Z,26.35
2019-04-22T05:01:07.083Z,25.70
2019-04-22T05:06:43.026Z,26.12
2019-04-22T05:11:47.403Z,26.77
2019-04-22T05:14:09.359Z,27.75
2019-04-22T05:16:51.895Z,25.97
2019-04-22T05:19:22.563Z,26.93
2019-04-22T05:21:53.380Z,25.65
2019-04-22T05:27:05.286Z,26.25
2019-04-22T05:29:46.420Z,25.68
2019-04-22T05:32:30.980Z,26.52
2019-04-22T05:34:59.685Z,26.30
2019-04-22T05:37:34.175Z,25.85
2019-04-22T05:40:19.305Z,25.35
2019-04-22T05:43:00.144Z,24.35
2019-04-22T05:45:38.638Z,24.32
2019-04-22T05:48:09.406Z,26.07
2019-04-22T05:50:48.115Z,26.37
2019-04-22T05:53:20.113Z,24.32
2019-04-22T05:55:53.859Z,24.27
2019-04-22T05:58:30.663Z,23.92
2019-04-22T06:01:29.063Z,24.77
2019-04-22T06:03:46.235Z,25.40
2019-04-22T06:06:16.790Z,24.12
2019-04-22T06:08:55.752Z,23.98
2019-04-22T06:11:28.457Z,24.32
2019-04-22T06:13:56.059Z,25.30
2019-04-22T06:16:38.017Z,24.40
2019-04-22T06:19:13.729Z,23.85
2019-04-22T06:21:42.791Z,23.50
2019-04-22T06:24:23.255Z,23.18
2019-04-22T06:27:01.598Z,20.97
2019-04-22T06:29:26.715Z,21.82
2019-04-22T06:32:23.718Z,22.00
2019-04-22T06:34:35.794Z,23.22
2019-04-22T06:37:12.846Z,21.45
2019-04-22T06:42:21.514Z,25.80
2019-04-22T06:44:57.910Z,21.25
2019-04-22T06:47:45.926Z,22.20
2019-04-22T06:50:05.365Z,21.37
2019-04-22T06:52:48.303Z,19.60
2019-04-22T06:55:16.757Z,20.92
2019-04-22T06:57:43.533Z,21.27
2019-04-22T07:00:18.509Z,21.40
2019-04-22T07:05:31.033Z,21.68
2019-04-22T07:08:04.394Z,20.52
2019-04-22T07:10:42.045Z,20.15
2019-04-22T07:13:16.310Z,21.62
2019-04-22T07:18:26.152Z,22.48
2019-04-22T07:20:57.821Z,22.10
2019-04-22T07:26:04.184Z,18.82
2019-04-22T07:28:29.463Z,18.27
2019-04-22T07:31:12.955Z,46.83
2019-04-22T07:33:43.865Z,11.65
2019-04-22T07:38:56.488Z,7.60
2019-04-22T07:41:32.857Z,6.20
2019-04-22T07:44:29.607Z,7.85
2019-04-22T07:47:07.819Z,5.90
2019-04-22T07:49:39.144Z,6.67
2019-04-22T07:52:05.036Z,6.33
2019-04-22T07:54:43.423Z,6.70
2019-04-22T07:57:22.729Z,7.40
2019-04-22T08:00:03.005Z,7.50
2019-04-22T08:03:05.052Z,7.50
2019-04-22T08:08:14.625Z,9.18
2019-04-22T08:10:57.374Z,9.50
2019-04-22T08:13:31.519Z,8.40
2019-04-22T08:16:08.043Z,10.32
2019-04-22T08:18:59.765Z,10.98
2019-04-22T08:21:09.086Z,9.23
2019-04-22T08:24:01.445Z,9.18
2019-04-22T08:26:20.572Z,9.53
2019-04-22T08:28:55.809Z,10.35
2019-04-22T08:31:33.327Z,9.23
2019-04-22T08:34:04.997Z,9.30
2019-04-22T08:36:32.015Z,9.20
2019-04-22T08:41:37.164Z,8.28
2019-04-22T08:44:18.605Z,8.90
2019-04-22T08:46:49.032Z,8.40
2019-04-22T08:49:26.199Z,8.43
2019-04-22T08:52:01.066Z,7.80
2019-04-22T08:57:30.273Z,6.67
2019-04-22T08:59:43.192Z,7.08
2019-04-22T09:05:11.912Z,6.05
2019-04-22T09:07:58.717Z,6.47
2019-04-22T09:10:21.719Z,7.05
2019-04-22T09:12:57.959Z,6.97
2019-04-22T09:15:31.252Z,8.35
2019-04-22T09:18:02.350Z,8.70
2019-04-22T09:23:07.700Z,10.55
2019-04-22T09:25:40.551Z,9.50
2019-04-22T09:28:17.552Z,9.85
2019-04-22T09:30:56.904Z,9.18
2019-04-22T09:33:27.628Z,9.30
2019-04-22T09:36:12.879Z,11.40
2019-04-22T09:38:38.360Z,9.80
2019-04-22T09:41:06.545Z,21.48
2019-04-22T09:43:47.088Z,9.70
2019-04-22T09:46:19.830Z,9.73
2019-04-22T09:48:54.663Z,10.32
2019-04-22T09:51:22.663Z,9.38
2019-04-22T09:54:02.400Z,10.13
2019-04-22T09:56:32.178Z,10.55
2019-04-22T09:59:13.718Z,10.82
2019-04-22T10:02:01.876Z,20.95
2019-04-22T10:04:51.734Z,13.45
2019-04-22T10:07:24.088Z,11.38
2019-04-22T10:10:00.223Z,10.08
2019-04-22T10:12:28.049Z,22.40
2019-04-22T10:14:55.881Z,17.87
2019-04-22T10:17:32.395Z,18.45
2019-04-22T10:20:05.573Z,17.85
2019-04-22T10:25:29.590Z,17.87
2019-04-22T10:27:53.621Z,18.23
2019-04-22T10:30:36.055Z,15.80
2019-04-22T10:32:52.429Z,13.40
2019-04-22T10:35:11.131Z,12.07
2019-04-22T10:37:40.632Z,14.23
2019-04-22T10:40:17.777Z,13.30
2019-04-22T10:42:51.731Z,11.55
2019-04-22T10:45:24.004Z,11.10
2019-04-22T10:47:56.098Z,12.43
2019-04-22T10:50:34.781Z,11.55
2019-04-22T10:53:05.709Z,12.40
2019-04-22T10:55:41.718Z,12.05
2019-04-22T10:58:12.831Z,11.40
2019-04-22T11:00:47.228Z,11.63
2019-04-22T11:03:20.386Z,12.13
2019-04-22T11:05:54.253Z,12.10
2019-04-22T11:08:33.914Z,9.65
2019-04-22T11:11:16.883Z,10.80
2019-04-22T11:13:35.854Z,8.98
2019-04-22T11:16:09.714Z,8.58
2019-04-22T11:18:43.322Z,8.55
2019-04-22T11:21:16.057Z,8.18
2019-04-22T11:23:48.311Z,8.80
2019-04-22T11:26:21.809Z,8.45
2019-04-22T11:28:54.111Z,8.35
2019-04-22T11:31:26.500Z,8.98
2019-04-22T11:34:00.800Z,9.45
2019-04-22T11:36:32.983Z,8.85
2019-04-22T11:39:09.675Z,10.58
2019-04-22T11:41:42.068Z,9.75
2019-04-22T11:44:15.090Z,9.43
2019-04-22T11:46:47.512Z,8.98
2019-04-22T11:49:19.417Z,9.48
2019-04-22T11:51:52.160Z,8.88
2019-04-22T11:54:25.112Z,7.95
2019-04-22T11:56:58.899Z,9.40
2019-04-22T11:59:31.010Z,9.30
2019-04-22T12:02:02.949Z,9.85
2019-04-22T12:04:35.895Z,9.78
2019-04-22T12:07:08.862Z,10.60
2019-04-22T12:09:41.929Z,10.32
2019-04-22T12:12:23.614Z,11.12
2019-04-22T12:14:56.398Z,11.45
2019-04-22T12:17:29.856Z,10.40
2019-04-22T12:20:05.559Z,10.28
2019-04-22T12:22:35.976Z,10.00
2019-04-22T12:25:12.468Z,9.78
2019-04-22T12:27:45.309Z,11.12
2019-04-22T12:30:19.784Z,12.40
2019-04-22T12:32:52.705Z,12.28
2019-04-22T12:35:26.257Z,11.73
2019-04-22T12:38:02.571Z,10.28
2019-04-22T12:40:41.302Z,11.05
2019-04-22T12:43:08.676Z,11.25
2019-04-22T12:45:40.402Z,10.58
2019-04-22T12:48:12.983Z,10.28
2019-04-22T12:50:47.779Z,9.35
2019-04-22T12:53:22.582Z,8.28
2019-04-22T12:55:55.349Z,8.53
2019-04-22T12:58:29.925Z,9.55
2019-04-22T13:01:01.260Z,8.83
2019-04-22T13:03:34.150Z,8.45
2019-04-22T13:06:07.809Z,8.58
2019-04-22T13:08:41.323Z,8.20
2019-04-22T13:11:17.693Z,7.60
2019-04-22T13:13:49.362Z,8.28
2019-04-22T13:16:22.912Z,8.35
2019-04-22T13:19:01.132Z,8.55
2019-04-22T13:21:28.998Z,8.95
2019-04-22T13:24:02.730Z,7.20
2019-04-22T13:26:35.956Z,7.90
2019-04-22T13:29:09.064Z,7.42
2019-04-22T13:31:42.566Z,6.50
2019-04-22T13:34:21.626Z,7.42
2019-04-22T13:36:50.321Z,6.28
2019-04-22T13:39:24.952Z,6.17
2019-04-22T13:42:02.281Z,6.33
2019-04-22T13:44:31.620Z,5.03
2019-04-22T13:47:19.698Z,5.42
2019-04-22T13:55:22.094Z,5.17
2019-04-22T13:57:41.426Z,5.80
2019-04-22T13:59:58.153Z,6.47
2019-04-22T14:02:30.532Z,6.60
2019-04-22T14:05:04.285Z,6.83
2019-04-22T14:07:37.040Z,6.75
2019-04-22T14:10:12.282Z,5.67
2019-04-22T14:12:44.670Z,6.35
2019-04-22T14:15:20.062Z,6.10
2019-04-22T14:17:52.805Z,6.83
2019-04-22T14:20:29.131Z,6.47
2019-04-22T14:22:59.543Z,6.67
2019-04-22T14:25:32.657Z,6.78
2019-04-22T14:28:10.215Z,6.37
2019-04-22T14:30:38.837Z,6.40
2019-04-22T14:33:12.174Z,6.08
2019-04-22T14:35:45.757Z,5.12
2019-04-22T14:38:18.364Z,5.10
2019-04-22T14:40:52.012Z,5.33
2019-04-22T14:43:52.712Z,5.12
2019-04-22T14:46:20.485Z,5.05
2019-04-22T14:49:10.416Z,5.35
2019-04-22T14:51:27.565Z,5.90
2019-04-22T14:54:01.177Z,6.45
2019-04-22T14:56:16.112Z,6.08
2019-04-22T14:58:49.031Z,5.40
2019-04-22T15:01:24.731Z,5.85
2019-04-22T15:03:56.815Z,6.12
2019-04-22T15:06:50.121Z,6.10
2019-04-22T15:09:22.156Z,5.62
2019-04-22T15:12:08.390Z,6.17
2019-04-22T15:14:29.775Z,4.78
2019-04-22T15:17:05.108Z,4.80
2019-04-22T15:19:39.691Z,4.35
2019-04-22T15:22:12.704Z,3.60
2019-04-22T15:24:45.113Z,2.75
2019-04-22T15:27:20.854Z,2.67
2019-04-22T15:29:53.763Z,2.40
2019-04-22T15:32:27.371Z,2.50
2019-04-22T15:34:59.655Z,2.37
2019-04-22T15:37:51.218Z,2.17
2019-04-22T15:40:24.740Z,2.30
2019-04-22T15:42:59.075Z,2.92
2019-04-22T15:45:31.072Z,1.70
2019-04-22T15:48:04.458Z,1.80
2019-04-22T15:50:37.978Z,1.65
2019-04-22T15:53:11.618Z,1.10
2019-04-22T15:55:44.882Z,0.78
2019-04-22T15:58:17.946Z,0.90
2019-04-22T16:01:01.535Z,0.88
2019-04-22T16:03:24.814Z,1.40
2019-04-22T16:05:57.656Z,1.25
2019-04-22T16:08:33.592Z,1.67
2019-04-22T16:11:04.111Z,1.02
2019-04-22T16:13:56.774Z,1.17
2019-04-22T16:16:28.748Z,1.92
2019-04-22T16:19:02.616Z,2.70
2019-04-22T16:21:44.786Z,4.10
2019-04-22T16:24:11.090Z,4.37
2019-04-22T16:26:44.624Z,4.97
2019-04-22T16:29:19.081Z,4.95
2019-04-22T16:31:51.649Z,3.77
2019-04-22T16:34:24.260Z,3.83
2019-04-22T16:36:56.737Z,4.00
2019-04-22T16:39:29.281Z,3.25
2019-04-22T16:42:02.628Z,3.92
2019-04-22T16:44:34.764Z,3.40
2019-04-22T16:47:08.036Z,3.52
2019-04-22T16:49:41.510Z,2.67
2019-04-22T16:52:14.020Z,2.92
2019-04-22T16:54:46.617Z,2.75
2019-04-22T16:57:19.821Z,3.62
2019-04-22T16:59:53.008Z,3.55
2019-04-22T17:02:26.676Z,3.22
2019-04-22T17:05:02.018Z,4.35
2019-04-22T17:07:34.260Z,3.72
2019-04-22T17:10:27.686Z,4.35
2019-04-22T17:13:05.958Z,4.92
2019-04-22T17:15:35.388Z,4.55
2019-04-22T17:18:07.697Z,4.92
2019-04-22T17:20:40.688Z,5.70
2019-04-22T17:23:13.953Z,5.37
2019-04-22T17:25:45.920Z,5.85
2019-04-22T17:28:19.317Z,5.05
2019-04-22T17:30:51.974Z,5.28
2019-04-22T17:33:24.300Z,4.40
2019-04-22T17:35:56.985Z,4.85
2019-04-22T17:38:40.796Z,4.40
2019-04-22T17:41:19.035Z,4.25
2019-04-22T17:43:59.238Z,4.10
2019-04-22T17:46:29.201Z,3.62
2019-04-22T17:49:10.210Z,4.10
2019-04-22T17:51:49.978Z,3.90
2019-04-22T17:54:17.067Z,4.33
2019-04-22T17:56:50.980Z,3.83
2019-04-22T17:59:25.075Z,4.35
2019-04-22T18:01:54.069Z,4.58
2019-04-22T18:04:10.570Z,4.35
2019-04-22T18:07:13.443Z,3.95
2019-04-22T18:10:14.082Z,3.47
2019-04-22T18:12:19.549Z,3.92
2019-04-22T18:14:48.068Z,3.72
2019-04-22T18:17:25.463Z,3.85
2019-04-22T18:19:51.299Z,4.25
2019-04-22T18:22:21.970Z,4.35
2019-04-22T18:24:58.256Z,3.65
2019-04-22T18:28:00.682Z,3.52
2019-04-22T18:30:11.405Z,3.77
2019-04-22T18:32:47.122Z,3.90
2019-04-22T18:35:20.979Z,4.25
2019-04-22T18:37:53.665Z,4.10
2019-04-22T18:40:30.814Z,3.98
2019-04-22T18:43:17.117Z,4.92
2019-04-22T18:46:03.761Z,4.10
2019-04-22T18:48:06.330Z,4.80
2019-04-22T18:50:56.307Z,4.78
2019-04-22T18:53:38.249Z,4.55
2019-04-22T18:56:09.767Z,4.30
2019-04-22T18:58:46.291Z,4.25
2019-04-22T19:01:05.923Z,4.55
2019-04-22T19:03:52.828Z,3.87
2019-04-22T19:06:52.287Z,3.58
2019-04-22T19:09:29.538Z,4.58
2019-04-22T19:12:07.975Z,5.42
2019-04-22T19:14:42.165Z,4.17
2019-04-22T19:17:17.222Z,4.30
2019-04-22T19:19:46.865Z,4.20
2019-04-22T19:22:22.382Z,3.95
2019-04-22T19:24:51.721Z,5.22
2019-04-22T19:27:27.685Z,4.33
2019-04-22T19:30:04.563Z,4.12
2019-04-22T19:35:32.564Z,3.95
2019-04-22T19:38:03.417Z,4.22
2019-04-22T19:41:24.027Z,4.15
2019-04-22T19:43:47.257Z,4.20
2019-04-22T19:46:22.642Z,3.60
2019-04-22T19:49:06.918Z,3.90
2019-04-22T19:51:50.931Z,3.87
2019-04-22T19:54:12.813Z,4.80
2019-04-22T19:56:36.717Z,3.62
2019-04-22T19:59:12.281Z,3.92
2019-04-22T20:01:49.764Z,4.35
2019-04-22T20:04:34.649Z,4.00
2019-04-22T20:07:06.680Z,4.20
2019-04-22T20:09:46.850Z,4.37
2019-04-22T20:12:19.070Z,4.30
2019-04-22T20:14:51.108Z,4.15
2019-04-22T20:17:33.054Z,4.25
2019-04-22T20:20:06.527Z,4.58
2019-04-22T20:22:32.732Z,4.50
2019-04-22T20:25:01.850Z,5.50
2019-04-22T20:27:49.924Z,5.30
2019-04-22T20:30:23.757Z,5.33
2019-04-22T20:32:59.394Z,5.05
2019-04-22T20:35:39.040Z,5.35
2019-04-22T20:38:19.979Z,5.70
2019-04-22T20:41:02.761Z,4.92
2019-04-22T20:43:50.309Z,4.90
2019-04-22T20:46:31.896Z,5.03
2019-04-22T20:49:04.765Z,5.03
2019-04-22T20:51:59.031Z,4.70
2019-04-22T20:54:19.283Z,4.50
2019-04-22T20:56:57.735Z,5.25
2019-04-22T20:59:27.168Z,5.30
2019-04-22T21:02:02.042Z,4.97
2019-04-22T21:04:44.480Z,4.78
2019-04-22T21:07:23.776Z,5.05
2019-04-22T21:10:07.687Z,5.17
2019-04-22T21:13:16.475Z,5.20
2019-04-22T21:15:29.875Z,5.40
2019-04-22T21:17:57.983Z,4.70
2019-04-22T21:20:36.792Z,4.58
2019-04-22T21:23:17.517Z,4.30
2019-04-22T21:25:52.234Z,4.75
2019-04-22T21:28:31.348Z,5.05
2019-04-22T21:31:04.678Z,5.15
2019-04-22T21:33:50.065Z,5.15
2019-04-22T21:36:42.643Z,4.75
2019-04-22T21:39:08.187Z,4.83
2019-04-22T21:41:47.330Z,5.40
2019-04-22T21:44:32.384Z,5.10
2019-04-22T21:47:10.091Z,4.70
2019-04-22T21:49:42.852Z,4.92
2019-04-22T21:52:17.079Z,4.78
2019-04-22T21:54:51.880Z,4.25
2019-04-22T21:58:00.425Z,5.00
2019-04-22T22:03:14.279Z,3.90
2019-04-22T22:05:34.279Z,4.60
2019-04-22T22:08:32.096Z,5.05
2019-04-22T22:11:09.535Z,4.45
2019-04-22T22:16:30.828Z,4.65
2019-04-22T22:19:11.494Z,4.87
2019-04-22T22:24:34.343Z,6.40
2019-04-22T22:26:56.024Z,5.28
2019-04-22T22:29:40.212Z,5.97
2019-04-22T22:32:00.069Z,5.40
2019-04-22T22:34:28.045Z,5.83
2019-04-22T22:37:00.364Z,5.53
2019-04-22T22:39:34.035Z,6.78
2019-04-22T22:41:54.247Z,6.30
2019-04-22T22:44:33.484Z,6.03
2019-04-22T22:47:18.119Z,5.65
2019-04-22T22:49:57.867Z,5.58
2019-04-22T22:55:03.872Z,5.72
2019-04-22T22:57:39.999Z,5.90
2019-04-22T23:00:04.988Z,6.33
2019-04-22T23:02:59.553Z,6.20
2019-04-22T23:05:18.472Z,6.58
2019-04-22T23:07:55.308Z,5.72
2019-04-22T23:10:26.773Z,6.17
2019-04-22T23:13:09.944Z,6.80
2019-04-22T23:15:29.765Z,6.87
2019-04-22T23:17:49.892Z,7.45
2019-04-22T23:20:30.250Z,7.05
2019-04-22T23:23:23.518Z,5.65
2019-04-22T23:25:54.765Z,6.97
2019-04-22T23:28:21.259Z,7.83
2019-04-22T23:30:45.742Z,8.68
2019-04-22T23:33:32.417Z,9.20
2019-04-22T23:36:03.880Z,8.68
2019-04-22T23:38:47.670Z,6.90
2019-04-22T23:41:27.029Z,6.75
2019-04-22T23:43:56.548Z,7.45
2019-04-22T23:46:21.537Z,6.75
2019-04-22T23:48:57.994Z,7.42
2019-04-22T23:51:31.283Z,6.62
2019-04-22T23:56:33.570Z,7.45
2019-04-22T23:59:23.354Z,7.45
